createdAt,value
2022-12-03T00:00:26.628Z,53.45
2022-12-03T00:02:56.668Z,57.10
2022-12-03T00:05:24.667Z,55.40
2022-12-03T00:07:52.610Z,58.87
2022-12-03T00:10:20.298Z,59.05
2022-12-03T00:12:49.952Z,58.10
2022-12-03T00:15:17.941Z,57.65
2022-12-03T00:17:46.607Z,60.12
2022-12-03T00:20:22.199Z,62.23
2022-12-03T00:22:50.612Z,65.10
2022-12-03T00:25:18.318Z,61.70
2022-12-03T00:27:46.178Z,66.02
2022-12-03T00:30:14.325Z,67.47
2022-12-03T00:32:42.416Z,67.60
2022-12-03T00:35:10.220Z,74.70
2022-12-03T00:37:37.951Z,72.22
2022-12-03T00:40:07.057Z,75.72
2022-12-03T00:42:34.574Z,66.45
2022-12-03T00:45:02.494Z,68.22
2022-12-03T00:47:30.407Z,66.47
2022-12-03T00:49:57.897Z,66.72
2022-12-03T00:52:25.783Z,63.55
2022-12-03T00:54:53.865Z,66.02
2022-12-03T00:57:21.722Z,62.78
2022-12-03T00:59:49.351Z,69.80
2022-12-03T01:02:16.922Z,68.30
2022-12-03T01:04:44.839Z,60.30
2022-12-03T01:07:12.530Z,60.50
2022-12-03T01:09:40.202Z,62.27
2022-12-03T01:12:07.893Z,63.13
2022-12-03T01:14:36.068Z,63.95
2022-12-03T01:17:03.797Z,63.08
2022-12-03T01:19:33.534Z,58.68
2022-12-03T01:22:02.168Z,55.70
2022-12-03T01:24:30.068Z,56.92
2022-12-03T01:26:58.275Z,54.75
2022-12-03T01:29:26.310Z,54.73
2022-12-03T01:32:12.280Z,54.00
2022-12-03T01:37:07.390Z,47.30
2022-12-03T01:39:35.211Z,49.38
2022-12-03T01:42:05.690Z,51.92
2022-12-03T01:44:36.581Z,51.90
2022-12-03T01:47:07.169Z,49.90
2022-12-03T01:49:58.330Z,50.73
2022-12-03T01:52:30.538Z,49.73
2022-12-03T01:55:01.279Z,50.98
2022-12-03T01:57:46.154Z,50.28
2022-12-03T02:00:18.674Z,49.85
2022-12-03T02:02:50.433Z,53.40
2022-12-03T02:05:26.029Z,52.95
2022-12-03T02:07:54.790Z,53.28
2022-12-03T02:10:30.345Z,52.75
2022-12-03T02:13:08.293Z,54.20
2022-12-03T02:15:39.995Z,51.60
2022-12-03T02:18:08.869Z,52.00
2022-12-03T02:20:59.843Z,52.45
2022-12-03T02:23:48.229Z,51.73
2022-12-03T02:26:15.904Z,40.80
2022-12-03T02:28:43.610Z,38.50
2022-12-03T02:31:11.527Z,37.05
2022-12-03T02:33:39.387Z,38.10
2022-12-03T02:36:08.054Z,36.17
2022-12-03T02:38:36.260Z,35.80
2022-12-03T02:41:08.251Z,35.88
2022-12-03T02:43:36.690Z,34.15
2022-12-03T02:46:07.005Z,34.75
2022-12-03T02:48:37.498Z,38.23
2022-12-03T02:51:09.168Z,49.53
2022-12-03T02:53:42.111Z,41.35
2022-12-03T02:56:14.186Z,35.10
2022-12-03T02:58:44.873Z,31.77
2022-12-03T03:01:14.634Z,32.08
2022-12-03T03:03:44.747Z,32.63
2022-12-03T03:06:13.315Z,33.35
2022-12-03T03:08:42.766Z,33.15
2022-12-03T03:11:11.148Z,32.05
2022-12-03T03:13:39.533Z,31.93
2022-12-03T03:16:08.930Z,34.98
2022-12-03T03:18:37.286Z,39.00
2022-12-03T03:21:06.198Z,38.88
2022-12-03T03:23:34.022Z,40.25
2022-12-03T03:26:06.199Z,38.67
2022-12-03T03:28:41.907Z,36.85
2022-12-03T03:31:13.429Z,34.40
2022-12-03T03:33:44.545Z,33.98
2022-12-03T03:36:14.651Z,34.38
2022-12-03T03:38:42.763Z,35.05
2022-12-03T03:41:11.831Z,36.00
2022-12-03T03:43:42.216Z,36.40
2022-12-03T03:46:11.799Z,36.73
2022-12-03T03:48:41.598Z,38.48
2022-12-03T03:51:10.988Z,36.88
2022-12-03T03:53:43.254Z,38.63
2022-12-03T03:56:11.724Z,34.88
2022-12-03T03:58:39.521Z,36.38
2022-12-03T04:01:08.934Z,37.05
2022-12-03T04:03:36.991Z,37.95
2022-12-03T04:06:06.081Z,38.88
2022-12-03T04:08:33.842Z,39.05
2022-12-03T04:11:20.297Z,38.38
2022-12-03T04:13:48.017Z,38.20
2022-12-03T04:16:15.667Z,37.30
2022-12-03T04:18:43.654Z,36.90
2022-12-03T04:21:34.564Z,35.20
2022-12-03T04:24:03.880Z,35.28
2022-12-03T04:26:50.356Z,36.48
2022-12-03T04:29:19.957Z,35.10
2022-12-03T04:32:06.441Z,39.33
2022-12-03T04:34:53.155Z,37.23
2022-12-03T04:37:21.159Z,36.53
2022-12-03T04:39:48.494Z,37.78
2022-12-03T04:42:16.131Z,38.48
2022-12-03T04:44:43.928Z,40.45
2022-12-03T04:47:15.648Z,38.33
2022-12-03T04:49:48.480Z,43.80
2022-12-03T04:52:19.907Z,41.98
2022-12-03T04:54:48.171Z,39.42
2022-12-03T04:57:16.564Z,37.65
2022-12-03T04:59:44.189Z,36.03
2022-12-03T05:02:11.938Z,36.45
2022-12-03T05:04:40.063Z,37.50
2022-12-03T05:07:08.981Z,36.70
2022-12-03T05:09:36.832Z,34.45
2022-12-03T05:12:05.057Z,34.58
2022-12-03T05:14:32.959Z,36.68
2022-12-03T05:17:00.814Z,35.60
2022-12-03T05:19:47.167Z,35.50
2022-12-03T05:22:14.780Z,38.35
2022-12-03T05:24:42.916Z,37.70
2022-12-03T05:27:10.509Z,37.15
2022-12-03T05:29:38.166Z,36.17
2022-12-03T05:32:06.217Z,35.03
2022-12-03T05:34:34.208Z,37.73
2022-12-03T05:37:01.900Z,38.33
2022-12-03T05:39:29.517Z,34.38
2022-12-03T05:42:15.858Z,38.05
2022-12-03T05:44:43.646Z,36.83
2022-12-03T05:47:11.140Z,36.88
2022-12-03T05:49:39.278Z,35.08
2022-12-03T05:52:06.878Z,33.18
2022-12-03T05:54:34.713Z,34.45
2022-12-03T05:57:02.557Z,33.08
2022-12-03T05:59:30.072Z,29.82
2022-12-03T06:01:57.699Z,29.90
2022-12-03T06:04:25.440Z,52.13
2022-12-03T06:06:53.093Z,53.15
2022-12-03T06:09:21.177Z,37.35
2022-12-03T06:11:50.938Z,63.25
2022-12-03T06:14:18.823Z,43.80
2022-12-03T06:16:46.568Z,33.60
2022-12-03T06:19:14.172Z,34.88
2022-12-03T06:21:42.033Z,36.65
2022-12-03T06:24:10.902Z,34.70
2022-12-03T06:26:38.656Z,38.15
2022-12-03T06:29:06.436Z,47.45
2022-12-03T06:31:34.876Z,65.90
2022-12-03T06:34:02.552Z,62.17
2022-12-03T06:36:30.460Z,50.70
2022-12-03T06:38:57.996Z,39.70
2022-12-03T06:41:25.904Z,41.33
2022-12-03T06:43:53.599Z,40.83
2022-12-03T06:46:21.455Z,39.50
2022-12-03T06:48:48.994Z,40.40
2022-12-03T06:51:16.628Z,42.03
2022-12-03T06:53:44.352Z,47.13
2022-12-03T06:56:12.207Z,49.15
2022-12-03T06:58:39.966Z,52.62
2022-12-03T07:01:07.724Z,46.42
2022-12-03T07:03:39.074Z,47.95
2022-12-03T07:06:07.018Z,47.25
2022-12-03T07:08:34.508Z,47.13
2022-12-03T07:11:02.378Z,48.30
2022-12-03T07:13:31.477Z,49.03
2022-12-03T07:16:01.690Z,50.35
2022-12-03T07:18:33.238Z,52.80
2022-12-03T07:21:01.150Z,52.55
2022-12-03T07:23:29.054Z,55.35
2022-12-03T07:25:57.029Z,48.68
2022-12-03T07:28:25.286Z,48.98
2022-12-03T07:30:53.419Z,44.85
2022-12-03T07:33:21.362Z,46.80
2022-12-03T07:35:49.331Z,47.80
2022-12-03T07:38:17.297Z,47.08
2022-12-03T07:40:46.510Z,41.58
2022-12-03T07:43:16.408Z,43.55
2022-12-03T07:45:44.395Z,40.65
2022-12-03T07:48:25.893Z,41.80
2022-12-03T07:50:56.357Z,39.92
2022-12-03T07:53:35.172Z,38.80
2022-12-03T07:56:06.424Z,40.05
2022-12-03T07:58:36.713Z,38.63
2022-12-03T08:01:05.190Z,39.27
2022-12-03T08:03:33.355Z,43.60
2022-12-03T08:06:08.672Z,43.02
2022-12-03T08:08:37.823Z,45.73
2022-12-03T08:11:06.237Z,44.88
2022-12-03T08:13:34.603Z,44.58
2022-12-03T08:16:08.115Z,44.15
2022-12-03T08:18:36.914Z,42.20
2022-12-03T08:21:08.587Z,40.75
2022-12-03T08:23:36.750Z,38.83
2022-12-03T08:26:19.190Z,41.33
2022-12-03T08:28:56.860Z,40.12
2022-12-03T08:31:33.560Z,42.03
2022-12-03T08:34:31.941Z,40.60
2022-12-03T08:37:17.864Z,44.70
2022-12-03T08:39:49.756Z,48.23
2022-12-03T08:42:41.545Z,47.38
2022-12-03T08:45:39.691Z,49.08
2022-12-03T08:48:34.166Z,52.58
2022-12-03T08:51:10.307Z,50.92
2022-12-03T08:53:46.324Z,50.43
2022-12-03T08:56:28.935Z,49.05
2022-12-03T08:59:14.174Z,46.83
2022-12-03T09:01:45.668Z,47.00
2022-12-03T09:04:30.384Z,50.33
2022-12-03T09:06:59.218Z,45.13
2022-12-03T09:09:27.580Z,45.38
2022-12-03T09:11:56.565Z,42.27
2022-12-03T09:14:28.541Z,43.42
2022-12-03T09:16:56.916Z,42.38
2022-12-03T09:19:29.759Z,42.88
2022-12-03T09:21:57.818Z,44.13
2022-12-03T09:24:25.813Z,41.68
2022-12-03T09:26:53.847Z,40.98
2022-12-03T09:29:21.752Z,41.40
2022-12-03T09:31:50.129Z,37.85
2022-12-03T09:34:29.062Z,39.05
2022-12-03T09:37:06.178Z,41.83
2022-12-03T09:39:38.561Z,39.55
2022-12-03T09:42:42.635Z,37.78
2022-12-03T09:45:49.393Z,34.90
2022-12-03T09:48:23.926Z,31.02
2022-12-03T09:50:55.830Z,35.63
2022-12-03T09:53:27.417Z,38.25
2022-12-03T09:56:00.284Z,38.35
2022-12-03T09:58:33.222Z,39.27
2022-12-03T10:00:59.312Z,36.23
2022-12-03T10:03:30.279Z,33.95
2022-12-03T10:05:58.373Z,34.73
2022-12-03T10:08:32.185Z,34.78
2022-12-03T10:10:58.787Z,33.85
2022-12-03T10:13:30.253Z,38.00
2022-12-03T10:16:00.810Z,44.42
2022-12-03T10:18:38.298Z,40.25
2022-12-03T10:21:04.280Z,42.30
2022-12-03T10:23:32.048Z,42.38
2022-12-03T10:26:05.560Z,41.23
2022-12-03T10:28:37.243Z,40.38
2022-12-03T10:31:09.415Z,39.80
2022-12-03T10:33:44.710Z,42.67
2022-12-03T10:36:23.988Z,38.85
2022-12-03T10:39:14.716Z,39.80
2022-12-03T10:41:44.475Z,34.40
2022-12-03T10:44:28.430Z,33.88
2022-12-03T10:47:11.963Z,34.58
2022-12-03T10:49:42.091Z,33.28
2022-12-03T10:52:25.829Z,40.08
2022-12-03T10:54:53.304Z,38.73
2022-12-03T10:57:22.339Z,33.80
2022-12-03T10:59:49.909Z,32.48
2022-12-03T11:02:25.209Z,34.27
2022-12-03T11:04:54.252Z,47.40
2022-12-03T11:07:23.915Z,50.75
2022-12-03T11:09:58.273Z,73.62
2022-12-03T11:12:30.978Z,33.07
2022-12-03T11:15:05.128Z,29.92
2022-12-03T11:17:51.984Z,25.37
2022-12-03T11:20:34.453Z,27.82
2022-12-03T11:23:17.939Z,28.27
2022-12-03T11:26:03.349Z,26.65
2022-12-03T11:28:35.637Z,26.97
2022-12-03T11:34:28.847Z,27.50
2022-12-03T11:37:17.524Z,26.87
2022-12-03T11:39:55.428Z,26.40
2022-12-03T11:48:48.181Z,26.12
2022-12-03T11:51:18.387Z,23.38
2022-12-03T11:53:46.061Z,20.50
2022-12-03T11:56:23.844Z,20.23
2022-12-03T11:59:03.728Z,21.85
2022-12-03T12:01:44.027Z,19.75
2022-12-03T12:04:31.206Z,19.50
2022-12-03T12:07:01.422Z,19.70
2022-12-03T12:09:54.409Z,19.70
2022-12-03T12:12:51.046Z,19.52
2022-12-03T12:15:42.740Z,19.67
2022-12-03T12:18:45.364Z,19.50
2022-12-03T12:21:41.882Z,19.17
2022-12-03T12:24:43.055Z,20.15
2022-12-03T12:27:14.496Z,20.15
2022-12-03T12:29:45.934Z,22.77
2022-12-03T12:32:41.294Z,21.65
2022-12-03T12:35:25.736Z,17.17
2022-12-03T12:38:00.398Z,19.95
2022-12-03T12:40:33.044Z,20.35
2022-12-03T12:43:24.381Z,20.43
2022-12-03T12:45:56.201Z,21.12
2022-12-03T12:48:27.728Z,20.17
2022-12-03T12:51:09.812Z,19.57
2022-12-03T12:53:42.463Z,24.35
2022-12-03T12:56:30.082Z,24.77
2022-12-03T12:59:03.258Z,21.87
2022-12-03T13:01:32.715Z,19.57
2022-12-03T13:04:34.378Z,18.00
2022-12-03T13:07:06.408Z,18.65
2022-12-03T13:09:34.560Z,23.40
2022-12-03T13:12:06.950Z,24.90
2022-12-03T13:14:37.093Z,33.35
2022-12-03T13:17:22.211Z,34.53
2022-12-03T13:22:53.788Z,26.77
2022-12-03T13:28:42.635Z,28.77
2022-12-03T13:31:43.870Z,24.87
2022-12-03T13:34:19.196Z,25.92
2022-12-03T13:36:57.591Z,28.23
2022-12-03T13:39:34.451Z,29.80
2022-12-03T13:42:38.558Z,32.25
2022-12-03T13:45:18.276Z,32.03
2022-12-03T13:47:49.958Z,35.40
2022-12-03T13:50:37.833Z,32.80
2022-12-03T13:53:45.452Z,38.10
2022-12-03T13:56:31.999Z,38.60
2022-12-03T13:59:00.850Z,41.98
2022-12-03T14:01:29.231Z,41.37
2022-12-03T14:03:57.174Z,43.48
2022-12-03T14:06:25.225Z,42.60
2022-12-03T14:08:53.225Z,49.83
2022-12-03T14:11:39.412Z,56.00
2022-12-03T14:14:07.290Z,45.98
2022-12-03T14:16:35.130Z,56.75
2022-12-03T14:19:03.459Z,88.95
2022-12-03T14:21:32.073Z,94.77
2022-12-03T14:23:59.819Z,85.87
2022-12-03T14:26:27.790Z,71.77
2022-12-03T14:28:55.678Z,60.38
2022-12-03T14:31:25.034Z,57.15
2022-12-03T14:33:52.969Z,62.08
2022-12-03T14:36:22.004Z,96.82
2022-12-03T14:38:50.038Z,104.38
2022-12-03T14:41:36.484Z,97.62
2022-12-03T14:44:04.580Z,69.17
2022-12-03T14:46:33.872Z,68.62
2022-12-03T14:49:01.798Z,71.47
2022-12-03T14:51:29.749Z,82.40
2022-12-03T14:53:58.784Z,81.53
2022-12-03T14:56:26.826Z,75.28
2022-12-03T14:58:54.951Z,72.20
2022-12-03T15:01:22.997Z,72.70
2022-12-03T15:03:50.871Z,71.47
2022-12-03T15:06:18.470Z,71.02
2022-12-03T15:08:47.114Z,68.40
2022-12-03T15:11:15.595Z,69.80
2022-12-03T15:13:45.114Z,66.55
2022-12-03T15:16:13.781Z,63.42
2022-12-03T15:18:41.740Z,62.73
2022-12-03T15:21:10.357Z,108.30
2022-12-03T15:23:38.370Z,78.35
2022-12-03T15:26:06.175Z,81.78
2022-12-03T15:28:33.992Z,103.83
2022-12-03T15:31:02.035Z,103.65
2022-12-03T15:33:29.723Z,111.37
2022-12-03T15:36:02.151Z,95.62
2022-12-03T15:38:29.963Z,87.65
2022-12-03T15:40:58.371Z,87.45
2022-12-03T15:43:26.518Z,88.12
2022-12-03T15:45:55.114Z,88.52
2022-12-03T15:48:23.983Z,85.45
2022-12-03T15:50:55.467Z,82.30
2022-12-03T15:53:23.955Z,78.75
2022-12-03T15:55:56.141Z,73.90
2022-12-03T15:58:24.847Z,74.67
2022-12-03T16:00:52.859Z,65.40
2022-12-03T16:03:26.932Z,65.90
2022-12-03T16:05:58.693Z,70.12
2022-12-03T16:08:27.601Z,62.60
2022-12-03T16:10:59.121Z,61.20
2022-12-03T16:13:31.945Z,84.07
2022-12-03T16:16:00.492Z,70.62
2022-12-03T16:18:32.530Z,56.08
2022-12-03T16:21:04.139Z,50.67
2022-12-03T16:23:31.929Z,46.92
2022-12-03T16:26:00.137Z,49.33
2022-12-03T16:28:28.482Z,52.13
2022-12-03T16:30:56.653Z,54.65
2022-12-03T16:33:31.462Z,59.10
2022-12-03T16:36:01.363Z,55.23
2022-12-03T16:38:30.612Z,51.48
2022-12-03T16:40:58.665Z,44.23
2022-12-03T16:43:27.684Z,38.25
2022-12-03T16:45:55.514Z,40.40
2022-12-03T16:48:25.455Z,42.93
2022-12-03T16:50:55.507Z,36.93
2022-12-03T16:53:26.625Z,34.90
2022-12-03T16:55:54.229Z,36.73
2022-12-03T16:58:22.274Z,40.50
2022-12-03T17:00:52.556Z,42.05
2022-12-03T17:03:22.214Z,45.25
2022-12-03T17:05:50.370Z,46.73
2022-12-03T17:08:19.161Z,71.77
2022-12-03T17:10:47.094Z,72.30
2022-12-03T17:13:15.086Z,54.93
2022-12-03T17:15:42.894Z,48.63
2022-12-03T17:18:10.727Z,67.20
2022-12-03T17:20:39.065Z,100.72
2022-12-03T17:23:06.760Z,67.17
2022-12-03T17:25:34.876Z,58.73
2022-12-03T17:28:03.502Z,47.98
2022-12-03T17:30:31.203Z,44.63
2022-12-03T17:32:58.776Z,44.25
2022-12-03T17:35:27.886Z,44.13
2022-12-03T17:37:56.203Z,43.33
2022-12-03T17:40:23.925Z,44.13
2022-12-03T17:42:51.846Z,47.93
2022-12-03T17:45:19.553Z,48.38
2022-12-03T17:47:47.303Z,49.75
2022-12-03T17:50:14.871Z,55.95
2022-12-03T17:52:42.782Z,52.17
2022-12-03T17:55:15.984Z,52.30
2022-12-03T17:57:40.198Z,56.20
2022-12-03T18:00:13.437Z,55.75
2022-12-03T18:02:44.069Z,55.80
2022-12-03T18:05:12.887Z,54.35
2022-12-03T18:07:40.746Z,53.52
2022-12-03T18:10:08.909Z,54.95
2022-12-03T18:12:37.057Z,57.25
2022-12-03T18:15:07.393Z,60.98
2022-12-03T18:17:35.441Z,64.82
2022-12-03T18:20:04.382Z,62.78
2022-12-03T18:22:32.005Z,62.08
2022-12-03T18:25:00.394Z,68.78
2022-12-03T18:27:29.157Z,66.12
2022-12-03T18:29:57.499Z,70.80
2022-12-03T18:32:29.197Z,84.40
2022-12-03T18:34:55.485Z,75.62
2022-12-03T18:37:29.279Z,84.95
2022-12-03T18:39:58.145Z,91.20
2022-12-03T18:42:26.930Z,86.40
2022-12-03T18:44:56.067Z,85.60
2022-12-03T18:47:29.166Z,79.53
2022-12-03T18:49:57.764Z,82.10
2022-12-03T18:52:25.831Z,81.85
2022-12-03T18:54:54.762Z,83.87
2022-12-03T18:57:22.536Z,79.12
2022-12-03T18:59:50.228Z,79.22
2022-12-03T19:04:52.675Z,66.92
2022-12-03T19:07:20.735Z,72.05
2022-12-03T19:09:48.351Z,72.27
2022-12-03T19:12:16.254Z,84.03
2022-12-03T19:14:43.815Z,79.72
2022-12-03T19:17:11.526Z,78.28
2022-12-03T19:19:39.683Z,70.28
2022-12-03T19:22:07.401Z,68.75
2022-12-03T19:24:35.476Z,69.72
2022-12-03T19:27:04.471Z,72.47
2022-12-03T19:29:32.314Z,65.67
2022-12-03T19:32:00.375Z,66.40
2022-12-03T19:34:29.904Z,63.98
2022-12-03T19:36:57.575Z,62.13
2022-12-03T19:39:25.309Z,61.85
2022-12-03T19:41:53.263Z,60.70
2022-12-03T19:44:22.028Z,64.72
2022-12-03T19:46:52.288Z,64.82
2022-12-03T19:49:20.885Z,64.42
2022-12-03T19:51:49.017Z,69.67
2022-12-03T19:54:17.763Z,73.80
2022-12-03T19:56:45.904Z,69.10
2022-12-03T19:59:14.301Z,66.87
2022-12-03T20:01:45.448Z,77.08
2022-12-03T20:04:15.180Z,81.82
2022-12-03T20:06:44.694Z,85.32
2022-12-03T20:09:16.368Z,88.17
2022-12-03T20:11:45.305Z,83.22
2022-12-03T20:14:17.693Z,87.80
2022-12-03T20:16:46.848Z,88.17
2022-12-03T20:19:17.592Z,88.35
2022-12-03T20:21:45.557Z,108.07
2022-12-03T20:24:17.505Z,109.75
2022-12-03T20:26:45.320Z,110.17
2022-12-03T20:29:13.258Z,94.75
2022-12-03T20:31:41.391Z,93.78
2022-12-03T20:34:10.514Z,90.20
2022-12-03T20:36:39.435Z,94.07
2022-12-03T20:39:08.230Z,96.85
2022-12-03T20:41:36.689Z,105.85
2022-12-03T20:44:07.583Z,106.65
2022-12-03T20:46:35.761Z,94.62
2022-12-03T20:49:05.317Z,92.45
2022-12-03T20:51:38.343Z,89.87
2022-12-03T20:54:06.500Z,91.55
2022-12-03T20:56:39.089Z,129.75
2022-12-03T20:59:10.728Z,80.65
2022-12-03T21:01:39.705Z,75.78
2022-12-03T21:04:09.206Z,69.03
2022-12-03T21:06:37.413Z,67.53
2022-12-03T21:09:07.187Z,67.53
2022-12-03T21:11:41.425Z,65.50
2022-12-03T21:14:11.934Z,65.67
2022-12-03T21:19:20.041Z,64.97
2022-12-03T21:21:48.923Z,64.47
2022-12-03T21:24:17.398Z,75.55
2022-12-03T21:26:46.237Z,71.17
2022-12-03T21:29:15.357Z,65.83
2022-12-03T21:31:43.626Z,61.75
2022-12-03T21:34:13.867Z,58.95
2022-12-03T21:36:42.475Z,52.98
2022-12-03T21:39:12.752Z,48.08
2022-12-03T21:41:40.815Z,44.53
2022-12-03T21:44:13.965Z,44.95
2022-12-03T21:47:11.455Z,43.15
2022-12-03T21:49:14.079Z,51.00
2022-12-03T21:51:42.176Z,60.78
2022-12-03T21:54:10.379Z,67.35
2022-12-03T21:56:39.334Z,64.22
2022-12-03T21:59:07.662Z,62.27
2022-12-03T22:01:41.653Z,62.50
2022-12-03T22:04:08.887Z,64.37
2022-12-03T22:06:38.718Z,65.52
2022-12-03T22:09:06.573Z,64.53
2022-12-03T22:11:36.354Z,67.35
2022-12-03T22:14:06.769Z,63.78
2022-12-03T22:16:35.597Z,60.78
2022-12-03T22:19:04.059Z,64.92
2022-12-03T22:21:35.200Z,72.40
2022-12-03T22:24:03.737Z,60.63
2022-12-03T22:26:35.324Z,52.25
2022-12-03T22:29:04.173Z,52.65
2022-12-03T22:31:32.866Z,52.98
2022-12-03T22:34:01.474Z,56.35
2022-12-03T22:36:29.725Z,56.48
2022-12-03T22:38:57.686Z,63.63
2022-12-03T22:41:29.694Z,70.65
2022-12-03T22:43:57.828Z,74.30
2022-12-03T22:46:25.794Z,72.30
2022-12-03T22:48:53.369Z,70.08
2022-12-03T22:51:25.850Z,68.97
2022-12-03T22:53:58.816Z,66.75
2022-12-03T22:56:30.266Z,68.02
2022-12-03T22:59:03.912Z,58.13
2022-12-03T23:01:34.963Z,58.00
2022-12-03T23:04:03.320Z,51.53
2022-12-03T23:06:36.163Z,50.75
2022-12-03T23:09:06.772Z,50.78
2022-12-03T23:11:35.395Z,48.45
2022-12-03T23:14:04.225Z,48.73
2022-12-03T23:16:33.795Z,50.85
2022-12-03T23:19:02.670Z,48.68
2022-12-03T23:21:34.636Z,45.60
2022-12-03T23:24:06.224Z,42.35
2022-12-03T23:26:36.783Z,41.63
2022-12-03T23:29:07.925Z,39.58
2022-12-03T23:31:36.905Z,38.38
2022-12-03T23:34:06.805Z,37.65
2022-12-03T23:36:34.932Z,36.98
2022-12-03T23:39:03.781Z,35.40
2022-12-03T23:41:31.816Z,35.98
2022-12-03T23:43:59.466Z,33.92
2022-12-03T23:46:27.901Z,35.45
2022-12-03T23:48:58.547Z,34.75
2022-12-03T23:51:27.159Z,33.02
2022-12-03T23:53:57.160Z,33.85
2022-12-03T23:56:29.045Z,33.95
2022-12-03T23:58:57.824Z,35.78
